sensor_id;sensor_type;location;lat;lon;timestamp;P1;durP1;ratioP1;P2;durP2;ratioP2
9773;SDS011;4926;42.670;23.316;2023-04-01T00:00:47;20.05;;;8.88;;
9773;SDS011;4926;42.670;23.316;2023-04-01T00:03:17;16.15;;;8.75;;
9773;SDS011;4926;42.670;23.316;2023-04-01T00:05:44;23.92;;;9.43;;
9773;SDS011;4926;42.670;23.316;2023-04-01T00:08:11;17.20;;;8.93;;
9773;SDS011;4926;42.670;23.316;2023-04-01T00:10:38;20.75;;;10.27;;
9773;SDS011;4926;42.670;23.316;2023-04-01T00:13:06;21.55;;;10.80;;
9773;SDS011;4926;42.670;23.316;2023-04-01T00:15:34;22.60;;;12.85;;
9773;SDS011;4926;42.670;23.316;2023-04-01T00:18:01;20.60;;;12.10;;
9773;SDS011;4926;42.670;23.316;2023-04-01T00:20:28;21.27;;;11.35;;
9773;SDS011;4926;42.670;23.316;2023-04-01T00:22:58;22.23;;;12.38;;
9773;SDS011;4926;42.670;23.316;2023-04-01T00:25:25;24.83;;;13.05;;
9773;SDS011;4926;42.670;23.316;2023-04-01T00:27:52;23.33;;;13.02;;
9773;SDS011;4926;42.670;23.316;2023-04-01T00:30:20;22.63;;;12.93;;
9773;SDS011;4926;42.670;23.316;2023-04-01T00:32:47;20.23;;;12.73;;
9773;SDS011;4926;42.670;23.316;2023-04-01T00:35:17;22.38;;;13.50;;
9773;SDS011;4926;42.670;23.316;2023-04-01T00:37:44;23.70;;;13.63;;
9773;SDS011;4926;42.670;23.316;2023-04-01T00:40:22;23.52;;;13.60;;
9773;SDS011;4926;42.670;23.316;2023-04-01T00:42:52;27.67;;;14.90;;
9773;SDS011;4926;42.670;23.316;2023-04-01T00:45:30;20.92;;;12.60;;
9773;SDS011;4926;42.670;23.316;2023-04-01T00:47:59;19.38;;;12.95;;
9773;SDS011;4926;42.670;23.316;2023-04-01T00:50:32;19.85;;;12.60;;
9773;SDS011;4926;42.670;23.316;2023-04-01T00:53:01;22.23;;;12.45;;
9773;SDS011;4926;42.670;23.316;2023-04-01T00:55:29;21.48;;;12.15;;
9773;SDS011;4926;42.670;23.316;2023-04-01T00:58:00;18.80;;;11.80;;
9773;SDS011;4926;42.670;23.316;2023-04-01T01:00:32;17.45;;;11.18;;
9773;SDS011;4926;42.670;23.316;2023-04-01T01:03:00;16.20;;;10.15;;
9773;SDS011;4926;42.670;23.316;2023-04-01T01:05:30;19.40;;;11.00;;
9773;SDS011;4926;42.670;23.316;2023-04-01T01:08:12;17.48;;;11.70;;
9773;SDS011;4926;42.670;23.316;2023-04-01T01:10:45;17.48;;;11.13;;
9773;SDS011;4926;42.670;23.316;2023-04-01T01:13:20;19.50;;;9.98;;
9773;SDS011;4926;42.670;23.316;2023-04-01T01:15:56;15.88;;;8.63;;
9773;SDS011;4926;42.670;23.316;2023-04-01T01:18:27;14.75;;;8.85;;
9773;SDS011;4926;42.670;23.316;2023-04-01T01:24:13;10.85;;;7.72;;
9773;SDS011;4926;42.670;23.316;2023-04-01T01:26:55;13.82;;;8.07;;
9773;SDS011;4926;42.670;23.316;2023-04-01T01:32:59;12.68;;;8.23;;
9773;SDS011;4926;42.670;23.316;2023-04-01T01:35:42;12.98;;;8.00;;
9773;SDS011;4926;42.670;23.316;2023-04-01T01:38:14;12.63;;;7.35;;
9773;SDS011;4926;42.670;23.316;2023-04-01T01:40:46;12.68;;;7.68;;
9773;SDS011;4926;42.670;23.316;2023-04-01T01:43:18;11.48;;;7.70;;
9773;SDS011;4926;42.670;23.316;2023-04-01T01:45:49;12.57;;;6.63;;
9773;SDS011;4926;42.670;23.316;2023-04-01T01:48:20;14.60;;;6.50;;
9773;SDS011;4926;42.670;23.316;2023-04-01T01:50:49;10.95;;;6.88;;
9773;SDS011;4926;42.670;23.316;2023-04-01T01:53:19;11.13;;;5.97;;
9773;SDS011;4926;42.670;23.316;2023-04-01T01:55:46;14.38;;;6.78;;
9773;SDS011;4926;42.670;23.316;2023-04-01T01:58:14;9.75;;;6.20;;
9773;SDS011;4926;42.670;23.316;2023-04-01T02:00:46;12.98;;;6.50;;
9773;SDS011;4926;42.670;23.316;2023-04-01T02:03:17;9.40;;;5.50;;
9773;SDS011;4926;42.670;23.316;2023-04-01T02:05:52;10.68;;;5.85;;
9773;SDS011;4926;42.670;23.316;2023-04-01T02:08:30;8.98;;;5.22;;
9773;SDS011;4926;42.670;23.316;2023-04-01T02:11:03;8.57;;;5.45;;
9773;SDS011;4926;42.670;23.316;2023-04-01T02:13:33;10.05;;;5.22;;
9773;SDS011;4926;42.670;23.316;2023-04-01T02:16:08;9.00;;;5.10;;
9773;SDS011;4926;42.670;23.316;2023-04-01T02:18:39;14.90;;;8.27;;
9773;SDS011;4926;42.670;23.316;2023-04-01T02:21:10;10.20;;;5.10;;
9773;SDS011;4926;42.670;23.316;2023-04-01T02:23:38;10.68;;;5.53;;
9773;SDS011;4926;42.670;23.316;2023-04-01T02:26:07;9.40;;;5.03;;
9773;SDS011;4926;42.670;23.316;2023-04-01T02:28:36;10.82;;;4.43;;
9773;SDS011;4926;42.670;23.316;2023-04-01T02:31:06;7.18;;;4.20;;
9773;SDS011;4926;42.670;23.316;2023-04-01T02:33:34;13.15;;;4.95;;
9773;SDS011;4926;42.670;23.316;2023-04-01T02:36:03;11.18;;;4.57;;
9773;SDS011;4926;42.670;23.316;2023-04-01T02:38:31;12.88;;;5.70;;
9773;SDS011;4926;42.670;23.316;2023-04-01T02:41:01;11.07;;;5.45;;
9773;SDS011;4926;42.670;23.316;2023-04-01T02:43:30;10.52;;;6.05;;
9773;SDS011;4926;42.670;23.316;2023-04-01T02:45:57;9.27;;;5.78;;
9773;SDS011;4926;42.670;23.316;2023-04-01T02:48:26;9.63;;;5.47;;
9773;SDS011;4926;42.670;23.316;2023-04-01T02:50:53;12.18;;;6.10;;
9773;SDS011;4926;42.670;23.316;2023-04-01T02:53:21;12.13;;;6.13;;
9773;SDS011;4926;42.670;23.316;2023-04-01T02:55:49;10.68;;;6.10;;
9773;SDS011;4926;42.670;23.316;2023-04-01T02:58:19;13.93;;;6.10;;
9773;SDS011;4926;42.670;23.316;2023-04-01T03:00:45;9.95;;;6.20;;
9773;SDS011;4926;42.670;23.316;2023-04-01T03:03:12;12.32;;;6.53;;
9773;SDS011;4926;42.670;23.316;2023-04-01T03:05:40;11.75;;;6.78;;
9773;SDS011;4926;42.670;23.316;2023-04-01T03:08:07;16.40;;;6.85;;
9773;SDS011;4926;42.670;23.316;2023-04-01T03:10:34;10.27;;;6.38;;
9773;SDS011;4926;42.670;23.316;2023-04-01T03:13:02;16.02;;;7.07;;
9773;SDS011;4926;42.670;23.316;2023-04-01T03:15:29;13.68;;;6.60;;
9773;SDS011;4926;42.670;23.316;2023-04-01T03:17:56;11.60;;;7.13;;
9773;SDS011;4926;42.670;23.316;2023-04-01T03:20:22;15.07;;;7.68;;
9773;SDS011;4926;42.670;23.316;2023-04-01T03:22:49;21.42;;;13.30;;
9773;SDS011;4926;42.670;23.316;2023-04-01T03:25:18;23.70;;;16.80;;
9773;SDS011;4926;42.670;23.316;2023-04-01T03:27:45;23.20;;;15.80;;
9773;SDS011;4926;42.670;23.316;2023-04-01T03:30:13;30.33;;;22.05;;
9773;SDS011;4926;42.670;23.316;2023-04-01T03:32:40;31.83;;;22.48;;
9773;SDS011;4926;42.670;23.316;2023-04-01T03:35:09;33.08;;;24.58;;
9773;SDS011;4926;42.670;23.316;2023-04-01T03:37:36;31.60;;;21.33;;
9773;SDS011;4926;42.670;23.316;2023-04-01T03:40:06;26.13;;;20.20;;
9773;SDS011;4926;42.670;23.316;2023-04-01T03:42:38;26.33;;;18.42;;
9773;SDS011;4926;42.670;23.316;2023-04-01T03:45:08;20.15;;;15.25;;
9773;SDS011;4926;42.670;23.316;2023-04-01T03:47:38;13.13;;;6.95;;
9773;SDS011;4926;42.670;23.316;2023-04-01T03:50:07;15.05;;;8.55;;
9773;SDS011;4926;42.670;23.316;2023-04-01T03:52:35;16.00;;;8.38;;
9773;SDS011;4926;42.670;23.316;2023-04-01T03:55:02;15.32;;;8.95;;
9773;SDS011;4926;42.670;23.316;2023-04-01T03:57:30;14.23;;;8.43;;
9773;SDS011;4926;42.670;23.316;2023-04-01T03:59:57;15.48;;;8.23;;
9773;SDS011;4926;42.670;23.316;2023-04-01T04:02:27;12.15;;;7.70;;
9773;SDS011;4926;42.670;23.316;2023-04-01T04:04:55;13.02;;;7.47;;
9773;SDS011;4926;42.670;23.316;2023-04-01T04:07:21;14.40;;;7.00;;
9773;SDS011;4926;42.670;23.316;2023-04-01T04:09:51;12.02;;;6.82;;
9773;SDS011;4926;42.670;23.316;2023-04-01T04:12:18;10.55;;;6.75;;
9773;SDS011;4926;42.670;23.316;2023-04-01T04:14:44;14.68;;;6.15;;
9773;SDS011;4926;42.670;23.316;2023-04-01T04:17:11;13.63;;;6.63;;
9773;SDS011;4926;42.670;23.316;2023-04-01T04:19:43;15.02;;;6.25;;
9773;SDS011;4926;42.670;23.316;2023-04-01T04:22:14;13.68;;;6.22;;
9773;SDS011;4926;42.670;23.316;2023-04-01T04:24:41;14.45;;;6.63;;
9773;SDS011;4926;42.670;23.316;2023-04-01T04:27:10;17.73;;;8.55;;
9773;SDS011;4926;42.670;23.316;2023-04-01T04:29:40;11.50;;;6.82;;
9773;SDS011;4926;42.670;23.316;2023-04-01T04:32:07;13.55;;;6.82;;
9773;SDS011;4926;42.670;23.316;2023-04-01T04:34:33;11.05;;;6.82;;
9773;SDS011;4926;42.670;23.316;2023-04-01T04:37:03;13.25;;;6.25;;
9773;SDS011;4926;42.670;23.316;2023-04-01T04:39:31;16.20;;;6.55;;
9773;SDS011;4926;42.670;23.316;2023-04-01T04:41:58;12.18;;;7.60;;
9773;SDS011;4926;42.670;23.316;2023-04-01T04:44:25;11.35;;;6.50;;
9773;SDS011;4926;42.670;23.316;2023-04-01T04:46:51;15.85;;;7.80;;
9773;SDS011;4926;42.670;23.316;2023-04-01T04:49:21;12.95;;;7.25;;
9773;SDS011;4926;42.670;23.316;2023-04-01T04:51:48;11.00;;;6.78;;
9773;SDS011;4926;42.670;23.316;2023-04-01T04:54:15;15.50;;;6.13;;
9773;SDS011;4926;42.670;23.316;2023-04-01T04:56:44;11.25;;;6.32;;
9773;SDS011;4926;42.670;23.316;2023-04-01T04:59:11;13.77;;;6.93;;
9773;SDS011;4926;42.670;23.316;2023-04-01T05:01:38;12.27;;;7.05;;
9773;SDS011;4926;42.670;23.316;2023-04-01T05:04:05;9.35;;;5.63;;
9773;SDS011;4926;42.670;23.316;2023-04-01T05:06:36;20.60;;;7.60;;
9773;SDS011;4926;42.670;23.316;2023-04-01T05:09:03;13.50;;;7.00;;
9773;SDS011;4926;42.670;23.316;2023-04-01T05:11:30;13.05;;;7.40;;
9773;SDS011;4926;42.670;23.316;2023-04-01T05:14:02;18.88;;;8.75;;
9773;SDS011;4926;42.670;23.316;2023-04-01T05:16:29;19.73;;;8.80;;
9773;SDS011;4926;42.670;23.316;2023-04-01T05:18:58;18.27;;;9.15;;
9773;SDS011;4926;42.670;23.316;2023-04-01T05:21:25;13.60;;;8.23;;
9773;SDS011;4926;42.670;23.316;2023-04-01T05:23:52;11.93;;;8.55;;
9773;SDS011;4926;42.670;23.316;2023-04-01T05:26:19;14.80;;;8.85;;
9773;SDS011;4926;42.670;23.316;2023-04-01T05:28:45;15.02;;;8.32;;
9773;SDS011;4926;42.670;23.316;2023-04-01T05:31:14;12.68;;;7.70;;
9773;SDS011;4926;42.670;23.316;2023-04-01T05:33:41;12.98;;;8.40;;
9773;SDS011;4926;42.670;23.316;2023-04-01T05:36:08;15.85;;;8.02;;
9773;SDS011;4926;42.670;23.316;2023-04-01T05:38:37;12.45;;;7.95;;
9773;SDS011;4926;42.670;23.316;2023-04-01T05:41:03;12.25;;;7.55;;
9773;SDS011;4926;42.670;23.316;2023-04-01T05:43:30;15.18;;;7.05;;
9773;SDS011;4926;42.670;23.316;2023-04-01T05:45:57;13.52;;;6.25;;
9773;SDS011;4926;42.670;23.316;2023-04-01T05:48:25;12.23;;;6.38;;
9773;SDS011;4926;42.670;23.316;2023-04-01T05:50:52;12.52;;;7.22;;
9773;SDS011;4926;42.670;23.316;2023-04-01T05:53:19;7.60;;;5.05;;
9773;SDS011;4926;42.670;23.316;2023-04-01T05:55:47;10.15;;;4.95;;
9773;SDS011;4926;42.670;23.316;2023-04-01T05:58:13;10.43;;;5.25;;
9773;SDS011;4926;42.670;23.316;2023-04-01T06:00:40;11.55;;;4.93;;
9773;SDS011;4926;42.670;23.316;2023-04-01T06:03:07;9.90;;;4.35;;
9773;SDS011;4926;42.670;23.316;2023-04-01T06:05:39;11.00;;;4.20;;
9773;SDS011;4926;42.670;23.316;2023-04-01T06:08:09;6.97;;;3.92;;
9773;SDS011;4926;42.670;23.316;2023-04-01T06:10:40;9.00;;;4.03;;
9773;SDS011;4926;42.670;23.316;2023-04-01T06:13:18;7.53;;;4.20;;
9773;SDS011;4926;42.670;23.316;2023-04-01T06:15:52;10.80;;;4.47;;
9773;SDS011;4926;42.670;23.316;2023-04-01T06:18:34;7.72;;;4.68;;
9773;SDS011;4926;42.670;23.316;2023-04-01T06:21:25;9.90;;;4.10;;
9773;SDS011;4926;42.670;23.316;2023-04-01T06:24:12;8.15;;;4.10;;
9773;SDS011;4926;42.670;23.316;2023-04-01T06:26:49;8.10;;;3.58;;
9773;SDS011;4926;42.670;23.316;2023-04-01T06:29:35;8.40;;;3.45;;
9773;SDS011;4926;42.670;23.316;2023-04-01T06:32:17;9.65;;;4.20;;
9773;SDS011;4926;42.670;23.316;2023-04-01T06:35:01;8.73;;;3.95;;
9773;SDS011;4926;42.670;23.316;2023-04-01T06:40:38;6.75;;;3.63;;
9773;SDS011;4926;42.670;23.316;2023-04-01T06:43:22;6.38;;;3.80;;
9773;SDS011;4926;42.670;23.316;2023-04-01T06:46:00;9.50;;;4.57;;
9773;SDS011;4926;42.670;23.316;2023-04-01T06:48:38;6.65;;;4.30;;
9773;SDS011;4926;42.670;23.316;2023-04-01T06:51:15;9.20;;;4.75;;
9773;SDS011;4926;42.670;23.316;2023-04-01T06:53:52;6.38;;;4.25;;
9773;SDS011;4926;42.670;23.316;2023-04-01T06:56:25;6.57;;;4.38;;
9773;SDS011;4926;42.670;23.316;2023-04-01T06:58:53;9.65;;;4.57;;
9773;SDS011;4926;42.670;23.316;2023-04-01T07:01:23;7.43;;;4.50;;
9773;SDS011;4926;42.670;23.316;2023-04-01T07:03:55;13.20;;;5.47;;
9773;SDS011;4926;42.670;23.316;2023-04-01T07:06:26;8.63;;;5.10;;
9773;SDS011;4926;42.670;23.316;2023-04-01T07:08:57;8.05;;;4.95;;
9773;SDS011;4926;42.670;23.316;2023-04-01T07:11:29;10.43;;;4.78;;
9773;SDS011;4926;42.670;23.316;2023-04-01T07:13:59;6.53;;;4.88;;
9773;SDS011;4926;42.670;23.316;2023-04-01T07:16:29;10.20;;;4.82;;
9773;SDS011;4926;42.670;23.316;2023-04-01T07:19:02;11.30;;;5.25;;
9773;SDS011;4926;42.670;23.316;2023-04-01T07:21:33;10.55;;;4.68;;
9773;SDS011;4926;42.670;23.316;2023-04-01T07:24:05;10.77;;;4.78;;
9773;SDS011;4926;42.670;23.316;2023-04-01T07:26:40;13.65;;;5.57;;
9773;SDS011;4926;42.670;23.316;2023-04-01T07:29:09;9.40;;;4.65;;
9773;SDS011;4926;42.670;23.316;2023-04-01T07:31:41;11.48;;;4.82;;
9773;SDS011;4926;42.670;23.316;2023-04-01T07:34:21;9.57;;;4.85;;
9773;SDS011;4926;42.670;23.316;2023-04-01T07:36:52;13.63;;;5.07;;
9773;SDS011;4926;42.670;23.316;2023-04-01T07:39:30;7.35;;;4.45;;
9773;SDS011;4926;42.670;23.316;2023-04-01T07:42:13;14.50;;;4.70;;
9773;SDS011;4926;42.670;23.316;2023-04-01T07:44:51;7.18;;;4.88;;
9773;SDS011;4926;42.670;23.316;2023-04-01T07:47:32;14.65;;;5.10;;
9773;SDS011;4926;42.670;23.316;2023-04-01T07:50:13;9.85;;;4.90;;
9773;SDS011;4926;42.670;23.316;2023-04-01T07:52:50;9.55;;;5.32;;
9773;SDS011;4926;42.670;23.316;2023-04-01T07:55:28;8.38;;;4.95;;
9773;SDS011;4926;42.670;23.316;2023-04-01T07:58:00;8.27;;;4.72;;
9773;SDS011;4926;42.670;23.316;2023-04-01T08:00:37;16.45;;;5.18;;
9773;SDS011;4926;42.670;23.316;2023-04-01T08:03:16;13.25;;;5.45;;
9773;SDS011;4926;42.670;23.316;2023-04-01T08:06:07;11.50;;;5.10;;
9773;SDS011;4926;42.670;23.316;2023-04-01T08:08:52;68.80;;;9.52;;
9773;SDS011;4926;42.670;23.316;2023-04-01T08:11:31;15.25;;;5.50;;
9773;SDS011;4926;42.670;23.316;2023-04-01T08:14:08;14.18;;;5.60;;
9773;SDS011;4926;42.670;23.316;2023-04-01T08:16:46;12.40;;;5.75;;
9773;SDS011;4926;42.670;23.316;2023-04-01T08:19:29;9.75;;;5.30;;
9773;SDS011;4926;42.670;23.316;2023-04-01T08:22:04;9.38;;;5.68;;
9773;SDS011;4926;42.670;23.316;2023-04-01T08:24:39;29.83;;;6.55;;
9773;SDS011;4926;42.670;23.316;2023-04-01T08:27:11;13.52;;;5.68;;
9773;SDS011;4926;42.670;23.316;2023-04-01T08:29:48;11.77;;;5.13;;
9773;SDS011;4926;42.670;23.316;2023-04-01T08:32:22;8.90;;;5.03;;
9773;SDS011;4926;42.670;23.316;2023-04-01T08:34:55;10.93;;;5.20;;
9773;SDS011;4926;42.670;23.316;2023-04-01T08:37:30;7.70;;;5.22;;
9773;SDS011;4926;42.670;23.316;2023-04-01T08:40:13;9.20;;;5.40;;
9773;SDS011;4926;42.670;23.316;2023-04-01T08:43:08;7.45;;;4.50;;
9773;SDS011;4926;42.670;23.316;2023-04-01T08:45:48;9.90;;;5.03;;
9773;SDS011;4926;42.670;23.316;2023-04-01T08:54:34;8.77;;;4.15;;
9773;SDS011;4926;42.670;23.316;2023-04-01T08:57:13;8.60;;;4.15;;
9773;SDS011;4926;42.670;23.316;2023-04-01T08:59:55;7.55;;;4.40;;
9773;SDS011;4926;42.670;23.316;2023-04-01T09:02:46;8.98;;;4.40;;
9773;SDS011;4926;42.670;23.316;2023-04-01T09:05:34;7.95;;;4.22;;
9773;SDS011;4926;42.670;23.316;2023-04-01T09:08:13;7.45;;;4.03;;
9773;SDS011;4926;42.670;23.316;2023-04-01T09:13:51;9.88;;;3.53;;
9773;SDS011;4926;42.670;23.316;2023-04-01T09:16:43;8.82;;;3.90;;
9773;SDS011;4926;42.670;23.316;2023-04-01T09:19:30;11.50;;;3.63;;
9773;SDS011;4926;42.670;23.316;2023-04-01T09:22:13;12.18;;;3.33;;
9773;SDS011;4926;42.670;23.316;2023-04-01T09:27:55;6.63;;;3.25;;
9773;SDS011;4926;42.670;23.316;2023-04-01T09:30:34;7.45;;;3.80;;
9773;SDS011;4926;42.670;23.316;2023-04-01T09:36:24;10.30;;;3.88;;
9773;SDS011;4926;42.670;23.316;2023-04-01T09:39:13;6.55;;;3.72;;
9773;SDS011;4926;42.670;23.316;2023-04-01T09:42:14;10.90;;;3.38;;
9773;SDS011;4926;42.670;23.316;2023-04-01T09:44:53;7.38;;;3.08;;
9773;SDS011;4926;42.670;23.316;2023-04-01T09:47:28;9.43;;;3.90;;
9773;SDS011;4926;42.670;23.316;2023-04-01T09:53:10;7.72;;;3.30;;
9773;SDS011;4926;42.670;23.316;2023-04-01T09:56:13;8.80;;;3.42;;
9773;SDS011;4926;42.670;23.316;2023-04-01T09:59:04;8.20;;;3.40;;
9773;SDS011;4926;42.670;23.316;2023-04-01T10:11:14;5.03;;;3.20;;
9773;SDS011;4926;42.670;23.316;2023-04-01T10:14:28;7.72;;;3.17;;
9773;SDS011;4926;42.670;23.316;2023-04-01T10:17:22;7.15;;;3.55;;
9773;SDS011;4926;42.670;23.316;2023-04-01T10:20:18;6.85;;;3.13;;
9773;SDS011;4926;42.670;23.316;2023-04-01T10:26:12;4.50;;;3.05;;
9773;SDS011;4926;42.670;23.316;2023-04-01T10:29:06;7.13;;;3.67;;
9773;SDS011;4926;42.670;23.316;2023-04-01T10:31:57;6.30;;;3.45;;
9773;SDS011;4926;42.670;23.316;2023-04-01T10:34:56;6.60;;;3.45;;
9773;SDS011;4926;42.670;23.316;2023-04-01T10:50:24;7.88;;;3.55;;
9773;SDS011;4926;42.670;23.316;2023-04-01T10:56:20;6.45;;;4.10;;
9773;SDS011;4926;42.670;23.316;2023-04-01T11:05:27;6.10;;;4.10;;
9773;SDS011;4926;42.670;23.316;2023-04-01T11:08:31;7.28;;;3.35;;
9773;SDS011;4926;42.670;23.316;2023-04-01T11:14:35;5.18;;;2.35;;
9773;SDS011;4926;42.670;23.316;2023-04-01T11:32:13;10.10;;;3.85;;
9773;SDS011;4926;42.670;23.316;2023-04-01T11:34:55;7.97;;;3.22;;
9773;SDS011;4926;42.670;23.316;2023-04-01T11:37:34;8.00;;;4.30;;
9773;SDS011;4926;42.670;23.316;2023-04-01T11:40:11;6.85;;;2.25;;
9773;SDS011;4926;42.670;23.316;2023-04-01T11:42:53;9.75;;;2.60;;
9773;SDS011;4926;42.670;23.316;2023-04-01T11:45:35;5.57;;;2.20;;
9773;SDS011;4926;42.670;23.316;2023-04-01T11:51:08;5.72;;;2.30;;
9773;SDS011;4926;42.670;23.316;2023-04-01T11:53:47;8.35;;;2.88;;
9773;SDS011;4926;42.670;23.316;2023-04-01T11:56:33;6.88;;;2.83;;
9773;SDS011;4926;42.670;23.316;2023-04-01T12:02:16;6.32;;;2.83;;
9773;SDS011;4926;42.670;23.316;2023-04-01T12:04:58;5.57;;;2.60;;
9773;SDS011;4926;42.670;23.316;2023-04-01T12:07:44;8.15;;;3.00;;
9773;SDS011;4926;42.670;23.316;2023-04-01T12:10:20;7.80;;;2.55;;
9773;SDS011;4926;42.670;23.316;2023-04-01T12:12:54;6.00;;;3.10;;
9773;SDS011;4926;42.670;23.316;2023-04-01T12:15:33;4.43;;;2.65;;
9773;SDS011;4926;42.670;23.316;2023-04-01T12:18:15;7.43;;;2.70;;
9773;SDS011;4926;42.670;23.316;2023-04-01T12:20:49;7.28;;;2.88;;
9773;SDS011;4926;42.670;23.316;2023-04-01T12:23:25;3.90;;;2.67;;
9773;SDS011;4926;42.670;23.316;2023-04-01T12:26:31;4.50;;;2.45;;
9773;SDS011;4926;42.670;23.316;2023-04-01T12:29:17;5.57;;;2.97;;
9773;SDS011;4926;42.670;23.316;2023-04-01T12:32:05;4.22;;;2.53;;
9773;SDS011;4926;42.670;23.316;2023-04-01T12:34:57;6.68;;;2.72;;
9773;SDS011;4926;42.670;23.316;2023-04-01T12:37:45;5.75;;;3.50;;
9773;SDS011;4926;42.670;23.316;2023-04-01T12:40:23;5.43;;;3.83;;
9773;SDS011;4926;42.670;23.316;2023-04-01T12:43:04;6.55;;;4.75;;
9773;SDS011;4926;42.670;23.316;2023-04-01T12:45:42;6.60;;;4.25;;
9773;SDS011;4926;42.670;23.316;2023-04-01T12:48:27;7.80;;;3.70;;
9773;SDS011;4926;42.670;23.316;2023-04-01T12:57:13;9.18;;;5.22;;
9773;SDS011;4926;42.670;23.316;2023-04-01T12:59:58;7.32;;;4.40;;
9773;SDS011;4926;42.670;23.316;2023-04-01T13:02:44;10.98;;;6.57;;
9773;SDS011;4926;42.670;23.316;2023-04-01T13:08:23;9.25;;;4.20;;
9773;SDS011;4926;42.670;23.316;2023-04-01T13:13:54;6.15;;;4.05;;
9773;SDS011;4926;42.670;23.316;2023-04-01T13:16:38;6.05;;;3.85;;
9773;SDS011;4926;42.670;23.316;2023-04-01T13:19:08;6.45;;;3.88;;
9773;SDS011;4926;42.670;23.316;2023-04-01T13:21:46;6.45;;;4.30;;
9773;SDS011;4926;42.670;23.316;2023-04-01T13:27:08;4.60;;;3.00;;
9773;SDS011;4926;42.670;23.316;2023-04-01T13:29:41;6.15;;;3.28;;
9773;SDS011;4926;42.670;23.316;2023-04-01T13:32:19;5.72;;;4.15;;
9773;SDS011;4926;42.670;23.316;2023-04-01T13:34:59;7.97;;;3.63;;
9773;SDS011;4926;42.670;23.316;2023-04-01T13:37:41;6.32;;;3.83;;
9773;SDS011;4926;42.670;23.316;2023-04-01T13:43:16;4.40;;;3.63;;
9773;SDS011;4926;42.670;23.316;2023-04-01T13:45:57;4.78;;;3.42;;
9773;SDS011;4926;42.670;23.316;2023-04-01T13:48:57;6.95;;;3.70;;
9773;SDS011;4926;42.670;23.316;2023-04-01T13:51:49;4.57;;;3.42;;
9773;SDS011;4926;42.670;23.316;2023-04-01T13:57:37;6.05;;;3.80;;
9773;SDS011;4926;42.670;23.316;2023-04-01T14:00:23;5.80;;;2.90;;
9773;SDS011;4926;42.670;23.316;2023-04-01T14:06:11;5.00;;;3.30;;
9773;SDS011;4926;42.670;23.316;2023-04-01T14:08:55;4.90;;;2.90;;
9773;SDS011;4926;42.670;23.316;2023-04-01T14:11:39;3.90;;;2.50;;
9773;SDS011;4926;42.670;23.316;2023-04-01T14:14:19;4.20;;;2.20;;
9773;SDS011;4926;42.670;23.316;2023-04-01T14:17:01;2.42;;;1.48;;
9773;SDS011;4926;42.670;23.316;2023-04-01T14:19:44;5.25;;;1.90;;
9773;SDS011;4926;42.670;23.316;2023-04-01T14:22:30;4.70;;;2.60;;
9773;SDS011;4926;42.670;23.316;2023-04-01T14:25:17;3.60;;;1.70;;
9773;SDS011;4926;42.670;23.316;2023-04-01T14:28:03;3.97;;;2.00;;
9773;SDS011;4926;42.670;23.316;2023-04-01T14:30:40;2.33;;;1.60;;
9773;SDS011;4926;42.670;23.316;2023-04-01T14:33:21;5.60;;;1.63;;
9773;SDS011;4926;42.670;23.316;2023-04-01T14:36:00;2.55;;;1.92;;
9773;SDS011;4926;42.670;23.316;2023-04-01T14:38:53;3.33;;;1.95;;
9773;SDS011;4926;42.670;23.316;2023-04-01T14:41:41;2.40;;;1.48;;
9773;SDS011;4926;42.670;23.316;2023-04-01T14:44:27;2.83;;;1.50;;
9773;SDS011;4926;42.670;23.316;2023-04-01T14:50:07;5.82;;;2.38;;
9773;SDS011;4926;42.670;23.316;2023-04-01T14:52:39;4.65;;;3.45;;
9773;SDS011;4926;42.670;23.316;2023-04-01T14:55:18;5.25;;;3.67;;
9773;SDS011;4926;42.670;23.316;2023-04-01T14:57:59;6.55;;;3.50;;
9773;SDS011;4926;42.670;23.316;2023-04-01T15:00:39;7.82;;;3.67;;
9773;SDS011;4926;42.670;23.316;2023-04-01T15:03:26;4.63;;;3.38;;
9773;SDS011;4926;42.670;23.316;2023-04-01T15:05:56;5.22;;;2.70;;
9773;SDS011;4926;42.670;23.316;2023-04-01T15:08:42;5.43;;;3.22;;
9773;SDS011;4926;42.670;23.316;2023-04-01T15:17:01;6.35;;;3.08;;
9773;SDS011;4926;42.670;23.316;2023-04-01T15:19:41;6.45;;;3.25;;
9773;SDS011;4926;42.670;23.316;2023-04-01T15:22:25;6.70;;;3.08;;
9773;SDS011;4926;42.670;23.316;2023-04-01T15:28:10;4.55;;;2.70;;
9773;SDS011;4926;42.670;23.316;2023-04-01T15:30:48;4.50;;;2.80;;
9773;SDS011;4926;42.670;23.316;2023-04-01T15:33:25;8.00;;;3.38;;
9773;SDS011;4926;42.670;23.316;2023-04-01T15:36:07;4.32;;;2.63;;
9773;SDS011;4926;42.670;23.316;2023-04-01T15:38:41;5.90;;;2.88;;
9773;SDS011;4926;42.670;23.316;2023-04-01T15:41:15;5.60;;;2.85;;
9773;SDS011;4926;42.670;23.316;2023-04-01T15:43:43;5.47;;;2.70;;
9773;SDS011;4926;42.670;23.316;2023-04-01T15:46:21;5.75;;;3.47;;
9773;SDS011;4926;42.670;23.316;2023-04-01T15:49:11;5.28;;;2.80;;
9773;SDS011;4926;42.670;23.316;2023-04-01T15:51:54;2.35;;;1.25;;
9773;SDS011;4926;42.670;23.316;2023-04-01T15:54:53;2.35;;;1.45;;
9773;SDS011;4926;42.670;23.316;2023-04-01T15:57:40;1.80;;;1.42;;
9773;SDS011;4926;42.670;23.316;2023-04-01T16:00:28;3.17;;;1.80;;
9773;SDS011;4926;42.670;23.316;2023-04-01T16:03:12;5.13;;;2.50;;
9773;SDS011;4926;42.670;23.316;2023-04-01T16:05:54;2.85;;;2.30;;
9773;SDS011;4926;42.670;23.316;2023-04-01T16:08:40;3.78;;;2.40;;
9773;SDS011;4926;42.670;23.316;2023-04-01T16:11:21;3.28;;;2.90;;
9773;SDS011;4926;42.670;23.316;2023-04-01T16:14:01;4.78;;;3.25;;
9773;SDS011;4926;42.670;23.316;2023-04-01T16:16:50;5.32;;;2.92;;
9773;SDS011;4926;42.670;23.316;2023-04-01T16:19:29;5.05;;;3.83;;
9773;SDS011;4926;42.670;23.316;2023-04-01T16:22:07;5.90;;;3.72;;
9773;SDS011;4926;42.670;23.316;2023-04-01T16:24:40;4.72;;;3.55;;
9773;SDS011;4926;42.670;23.316;2023-04-01T16:27:13;4.85;;;3.45;;
9773;SDS011;4926;42.670;23.316;2023-04-01T16:29:46;4.13;;;3.45;;
9773;SDS011;4926;42.670;23.316;2023-04-01T16:32:21;3.20;;;2.90;;
9773;SDS011;4926;42.670;23.316;2023-04-01T16:35:04;3.42;;;2.92;;
9773;SDS011;4926;42.670;23.316;2023-04-01T16:37:45;2.83;;;2.58;;
9773;SDS011;4926;42.670;23.316;2023-04-01T16:40:16;3.30;;;2.75;;
9773;SDS011;4926;42.670;23.316;2023-04-01T16:42:52;2.97;;;2.55;;
9773;SDS011;4926;42.670;23.316;2023-04-01T16:45:26;2.97;;;2.35;;
9773;SDS011;4926;42.670;23.316;2023-04-01T16:48:05;2.83;;;2.30;;
9773;SDS011;4926;42.670;23.316;2023-04-01T16:50:42;3.03;;;2.13;;
9773;SDS011;4926;42.670;23.316;2023-04-01T16:53:17;2.42;;;2.08;;
9773;SDS011;4926;42.670;23.316;2023-04-01T16:55:52;2.30;;;2.05;;
9773;SDS011;4926;42.670;23.316;2023-04-01T16:58:26;2.33;;;1.90;;
9773;SDS011;4926;42.670;23.316;2023-04-01T17:01:01;2.35;;;1.90;;
9773;SDS011;4926;42.670;23.316;2023-04-01T17:03:32;2.10;;;1.75;;
9773;SDS011;4926;42.670;23.316;2023-04-01T17:06:07;4.15;;;2.10;;
9773;SDS011;4926;42.670;23.316;2023-04-01T17:08:54;5.07;;;3.58;;
9773;SDS011;4926;42.670;23.316;2023-04-01T17:11:34;2.47;;;2.03;;
9773;SDS011;4926;42.670;23.316;2023-04-01T17:14:09;2.30;;;1.90;;
9773;SDS011;4926;42.670;23.316;2023-04-01T17:16:46;1.63;;;1.52;;
9773;SDS011;4926;42.670;23.316;2023-04-01T17:19:24;1.58;;;1.48;;
9773;SDS011;4926;42.670;23.316;2023-04-01T17:22:04;2.13;;;1.80;;
9773;SDS011;4926;42.670;23.316;2023-04-01T17:24:45;1.98;;;1.50;;
9773;SDS011;4926;42.670;23.316;2023-04-01T17:27:25;1.50;;;1.38;;
9773;SDS011;4926;42.670;23.316;2023-04-01T17:33:10;2.35;;;1.50;;
9773;SDS011;4926;42.670;23.316;2023-04-01T17:35:54;1.90;;;1.80;;
9773;SDS011;4926;42.670;23.316;2023-04-01T17:38:34;1.40;;;1.30;;
9773;SDS011;4926;42.670;23.316;2023-04-01T17:41:26;2.03;;;1.77;;
9773;SDS011;4926;42.670;23.316;2023-04-01T17:44:00;1.67;;;1.58;;
9773;SDS011;4926;42.670;23.316;2023-04-01T17:46:50;1.90;;;1.60;;
9773;SDS011;4926;42.670;23.316;2023-04-01T17:49:30;2.53;;;2.00;;
9773;SDS011;4926;42.670;23.316;2023-04-01T17:52:02;2.80;;;2.00;;